Accueil
METAR-TAF:

METAR-TAF

Aéroports :

Guilin, Chine

Aéroport international de Guilin Liangjiang

latitude: 25-20N, longitude: 110-18E, altitude: 166 m

Observation

Le bulletin a été fait il y a 20 minutes, à 16:00 UTC
Vent calme
Température 25°C
Humidité 94%
Pression 1011 hPa
Visibilité 10 km ou plus
pas de nuages en-dessous de 1500 mètres et pas de cumulonimbus.

METAR: ZGKL 261600Z 00000MPS CAVOK 25/24 Q1011 NOSIG

Heure: 00:20 (16:20 UTC)

Prévision

Le bulletin a été fait il y a 7 heures et 10 minutes, à 09:10 UTC
Prévision valable du 26 à 12 UTC au 27 à 12 UTC
Vent 6 kt de sud
Visibilité 10 km ou plus
Nuages épars à une hauteur de 3000 ft

TAF: ZGKL 260910Z 2612/2712 17003MPS 9999 SCT030 TX33/2708Z TN24/2623Z

Observations et prévisions météorologiques de plus de 4000 aéroports (messages METAR et TAF).

Les stations disponibles sont représentées par des disques jaunes et rouges sur la carte.

Passer la souris dessus pour voir le nom de la station.

Cliquer dessus pour voir les observations et prévisions météorologiques.

Pour changer de carte: cliquez sur les boutons verts avec une croix noire pour zoomer, sur le bouton vert avec un tiret pour effectuer un zoom arrière, ou sur les flèches vertes pour les cartes adjacentes.


METAR-TAF: